createdAt,value
2018-11-23T00:00:30.970Z,998.2
2018-11-23T00:01:44.321Z,998.3
2018-11-23T00:02:55.390Z,998.3
2018-11-23T00:04:07.543Z,998.3
2018-11-23T00:05:19.747Z,998.2
2018-11-23T00:06:31.939Z,998.3
2018-11-23T00:07:44.069Z,998.3
2018-11-23T00:08:56.334Z,998.3
2018-11-23T00:10:08.455Z,998.3
2018-11-23T00:11:20.718Z,998.3
2018-11-23T00:12:32.921Z,998.3
2018-11-23T00:13:45.108Z,998.3
2018-11-23T00:14:57.355Z,998.3
2018-11-23T00:16:09.498Z,998.4
2018-11-23T00:17:21.728Z,998.4
2018-11-23T00:18:33.973Z,998.3
2018-11-23T00:19:46.022Z,998.3
2018-11-23T00:20:58.252Z,998.3
2018-11-23T00:23:22.611Z,998.3
2018-11-23T00:24:34.873Z,998.3
2018-11-23T00:25:47.110Z,998.3
2018-11-23T00:28:11.502Z,998.3
2018-11-23T00:29:23.592Z,998.3
2018-11-23T00:30:35.786Z,998.3
2018-11-23T00:31:48.055Z,998.2
2018-11-23T00:33:00.265Z,998.2
2018-11-23T00:34:12.390Z,998.2
2018-11-23T00:35:24.637Z,998.2
2018-11-23T00:36:36.767Z,998.2
2018-11-23T00:37:48.957Z,998.2
2018-11-23T00:39:01.160Z,998.2
2018-11-23T00:40:13.371Z,998.2
2018-11-23T00:41:25.620Z,998.3
2018-11-23T00:42:37.736Z,998.2
2018-11-23T00:45:02.134Z,998.3
2018-11-23T00:46:14.399Z,998.2
2018-11-23T00:47:26.602Z,998.3
2018-11-23T00:48:38.720Z,998.3
2018-11-23T00:49:50.989Z,998.3
2018-11-23T00:51:03.193Z,998.3
2018-11-23T00:52:15.381Z,998.3
2018-11-23T00:53:27.503Z,998.3
2018-11-23T00:55:51.901Z,998.4
2018-11-23T00:57:04.209Z,998.3
2018-11-23T00:58:16.362Z,998.3
2018-11-23T00:59:28.528Z,998.3
2018-11-23T01:00:40.756Z,998.4
2018-11-23T01:01:52.873Z,998.3
2018-11-23T01:04:17.335Z,998.4
2018-11-23T01:05:29.549Z,998.4
2018-11-23T01:06:41.661Z,998.5
2018-11-23T01:07:53.926Z,998.4
2018-11-23T01:09:06.139Z,998.4
2018-11-23T01:10:18.247Z,998.4
2018-11-23T01:11:30.447Z,998.4
2018-11-23T01:12:42.636Z,998.4
2018-11-23T01:13:54.916Z,998.5
2018-11-23T01:15:07.153Z,998.4
2018-11-23T01:16:21.476Z,998.4
2018-11-23T01:17:31.452Z,998.5
2018-11-23T01:18:43.632Z,998.4
2018-11-23T01:19:55.921Z,998.4
2018-11-23T01:21:08.020Z,998.4
2018-11-23T01:22:20.216Z,998.4
2018-11-23T01:23:32.491Z,998.4
2018-11-23T01:24:44.674Z,998.4
2018-11-23T01:25:56.834Z,998.5
2018-11-23T01:27:09.041Z,998.5
2018-11-23T01:28:21.274Z,998.4
2018-11-23T01:29:33.465Z,998.4
2018-11-23T01:30:45.583Z,998.4
2018-11-23T01:31:57.775Z,998.5
2018-11-23T01:33:10.055Z,998.5
2018-11-23T01:34:22.277Z,998.5
2018-11-23T01:35:34.454Z,998.5
2018-11-23T01:36:46.652Z,998.4
2018-11-23T01:37:58.760Z,998.5
2018-11-23T01:39:11.029Z,998.5
2018-11-23T01:40:23.220Z,998.4
2018-11-23T01:41:35.460Z,998.4
2018-11-23T01:42:47.538Z,998.4
2018-11-23T01:43:59.742Z,998.4
2018-11-23T01:45:12.076Z,998.3
2018-11-23T01:46:24.132Z,998.3
2018-11-23T01:47:36.330Z,998.3
2018-11-23T01:48:48.600Z,998.3
2018-11-23T01:50:00.809Z,998.3
2018-11-23T01:51:12.926Z,998.3
2018-11-23T01:52:25.203Z,998.3
2018-11-23T01:54:49.584Z,998.2
2018-11-23T01:56:01.776Z,998.2
2018-11-23T01:57:13.995Z,998.2
2018-11-23T01:58:26.172Z,998.1
2018-11-23T01:59:38.291Z,998.1
2018-11-23T02:00:50.711Z,998.1
2018-11-23T02:02:02.892Z,998.1
2018-11-23T02:03:14.985Z,998
2018-11-23T02:04:27.197Z,998.1
2018-11-23T02:05:39.340Z,998.1
2018-11-23T02:06:51.468Z,998.1
2018-11-23T02:08:03.669Z,998.2
2018-11-23T02:09:15.934Z,998.2
2018-11-23T02:11:40.249Z,998.2
2018-11-23T02:12:52.521Z,998.2
2018-11-23T02:14:04.722Z,998.1
2018-11-23T02:15:16.841Z,998.1
2018-11-23T02:16:29.111Z,998.1
2018-11-23T02:17:41.303Z,998.1
2018-11-23T02:18:53.431Z,998
2018-11-23T02:20:05.703Z,998
2018-11-23T02:21:17.887Z,998.1
2018-11-23T02:22:30.114Z,998
2018-11-23T02:23:42.284Z,998
2018-11-23T02:24:54.485Z,998
2018-11-23T02:26:06.676Z,997.9
2018-11-23T02:27:18.821Z,997.9
2018-11-23T02:28:31.066Z,997.9
2018-11-23T02:29:43.339Z,998
2018-11-23T02:30:55.477Z,998
2018-11-23T02:32:07.666Z,998
2018-11-23T02:33:19.896Z,998
2018-11-23T02:34:31.982Z,998.1
2018-11-23T02:35:44.255Z,998.1
2018-11-23T02:36:56.697Z,998.1
2018-11-23T02:38:08.650Z,998
2018-11-23T02:39:20.843Z,998
2018-11-23T02:40:32.958Z,998.1
2018-11-23T02:41:45.279Z,998
2018-11-23T02:42:57.424Z,998
2018-11-23T02:44:09.622Z,998.1
2018-11-23T02:45:21.834Z,998.1
2018-11-23T02:46:34.790Z,998
2018-11-23T02:47:46.147Z,998
2018-11-23T02:48:58.369Z,998
2018-11-23T02:50:10.603Z,998
2018-11-23T02:52:35.001Z,998
2018-11-23T02:53:47.205Z,998
2018-11-23T02:54:59.329Z,998
2018-11-23T02:56:11.585Z,998
2018-11-23T02:57:23.785Z,998
2018-11-23T02:58:35.980Z,998
2018-11-23T02:59:48.102Z,998
2018-11-23T03:01:00.380Z,998
2018-11-23T03:02:12.585Z,998
2018-11-23T03:19:03.333Z,997.8
2018-11-23T03:20:15.539Z,997.8
2018-11-23T03:21:27.711Z,997.8
2018-11-23T03:22:39.851Z,997.8
2018-11-23T03:23:52.027Z,997.8
2018-11-23T03:25:04.263Z,997.7
2018-11-23T03:26:16.417Z,997.7
2018-11-23T03:27:28.616Z,997.7
2018-11-23T03:28:40.880Z,997.8
2018-11-23T03:29:53.007Z,997.9
2018-11-23T03:31:05.386Z,997.9
2018-11-23T03:32:17.491Z,997.9
2018-11-23T03:33:29.603Z,997.9
2018-11-23T03:34:41.804Z,997.9
2018-11-23T03:35:53.992Z,997.9
2018-11-23T03:37:06.273Z,997.9
2018-11-23T03:38:18.380Z,997.9
2018-11-23T03:39:30.591Z,997.9
2018-11-23T03:40:42.779Z,998
2018-11-23T03:41:54.975Z,998
2018-11-23T03:43:07.258Z,998
2018-11-23T03:44:19.438Z,998
2018-11-23T03:45:31.553Z,998
2018-11-23T03:46:43.772Z,998
2018-11-23T03:47:56.016Z,998
2018-11-23T03:49:08.259Z,998
2018-11-23T03:50:20.426Z,998
2018-11-23T03:51:32.676Z,997.9
2018-11-23T03:52:44.864Z,997.9
2018-11-23T03:53:56.928Z,997.9
2018-11-23T03:55:09.209Z,997.9
2018-11-23T03:56:21.399Z,997.9
2018-11-23T03:57:33.535Z,997.9
2018-11-23T03:58:45.798Z,997.9
2018-11-23T03:59:58.247Z,997.8
2018-11-23T04:01:10.121Z,997.8
2018-11-23T04:02:22.310Z,997.8
2018-11-23T04:03:34.499Z,997.8
2018-11-23T04:04:46.784Z,997.8
2018-11-23T04:05:59.246Z,997.8
2018-11-23T04:07:11.191Z,997.7
2018-11-23T04:08:23.281Z,997.7
2018-11-23T04:09:35.580Z,997.7
2018-11-23T04:10:47.753Z,997.8
2018-11-23T04:11:59.876Z,997.7
2018-11-23T04:13:12.204Z,997.8
2018-11-23T04:14:24.352Z,997.7
2018-11-23T04:15:36.536Z,997.7
2018-11-23T04:16:48.656Z,997.7
2018-11-23T04:18:00.927Z,997.7
2018-11-23T04:19:13.049Z,997.7
2018-11-23T04:20:25.330Z,997.7
2018-11-23T04:21:37.458Z,997.7
2018-11-23T04:22:49.640Z,997.6
2018-11-23T04:24:01.927Z,997.6
2018-11-23T04:25:14.100Z,997.6
2018-11-23T04:26:26.230Z,997.5
2018-11-23T04:27:38.501Z,997.5
2018-11-23T04:28:50.697Z,997.5
2018-11-23T04:30:02.910Z,997.4
2018-11-23T04:31:15.016Z,997.4
2018-11-23T04:32:27.316Z,997.4
2018-11-23T04:33:39.407Z,997.3
2018-11-23T04:34:51.688Z,997.3
2018-11-23T04:37:16.007Z,997.3
2018-11-23T04:38:28.294Z,997.4
2018-11-23T04:39:40.478Z,997.5
2018-11-23T04:40:52.589Z,997.5
2018-11-23T04:42:04.848Z,997.6
2018-11-23T04:43:16.964Z,997.6
2018-11-23T04:44:29.170Z,997.6
2018-11-23T04:45:41.433Z,997.6
2018-11-23T04:46:53.559Z,997.5
2018-11-23T04:48:05.836Z,997.5
2018-11-23T04:49:18.032Z,997.5
2018-11-23T04:50:30.219Z,997.6
2018-11-23T04:51:42.419Z,997.6
2018-11-23T04:52:54.657Z,997.6
2018-11-23T04:54:06.769Z,997.5
2018-11-23T04:55:18.930Z,997.4
2018-11-23T04:56:31.142Z,997.4
2018-11-23T04:57:43.487Z,997.4
2018-11-23T04:58:55.599Z,997.4
2018-11-23T05:00:07.717Z,997.4
2018-11-23T05:01:19.910Z,997.3
2018-11-23T05:02:32.134Z,997.3
2018-11-23T05:03:44.332Z,997.3
2018-11-23T05:04:56.495Z,997.3
2018-11-23T05:06:08.767Z,997.3
2018-11-23T05:07:20.909Z,997.3
2018-11-23T05:08:33.154Z,997.2
2018-11-23T05:10:57.555Z,997.3
2018-11-23T05:12:10.684Z,997.4
2018-11-23T05:13:21.865Z,997.4
2018-11-23T05:14:34.195Z,997.4
2018-11-23T05:15:46.328Z,997.4
2018-11-23T05:16:58.456Z,997.5
2018-11-23T05:18:10.754Z,997.5
2018-11-23T05:19:22.918Z,997.5
2018-11-23T05:20:35.049Z,997.5
2018-11-23T05:21:47.243Z,997.4
2018-11-23T05:22:59.458Z,997.4
2018-11-23T05:24:11.631Z,997.4
2018-11-23T05:26:36.146Z,997.4
2018-11-23T05:27:48.300Z,997.3
2018-11-23T05:29:00.491Z,997.3
2018-11-23T05:30:12.614Z,997.4
2018-11-23T05:31:24.826Z,997.3
2018-11-23T05:32:37.002Z,997.3
2018-11-23T05:33:49.287Z,997.3
2018-11-23T05:35:01.496Z,997.3
2018-11-23T05:36:13.610Z,997.4
2018-11-23T05:37:25.822Z,997.4
2018-11-23T05:38:38.059Z,997.3
2018-11-23T05:39:50.268Z,997.3
2018-11-23T05:41:02.467Z,997.3
2018-11-23T05:42:14.646Z,997.3
2018-11-23T05:43:26.849Z,997.4
2018-11-23T05:44:39.053Z,997.5
2018-11-23T05:47:03.367Z,997.5
2018-11-23T05:48:15.632Z,997.4
2018-11-23T05:49:27.819Z,997.4
2018-11-23T05:50:40.028Z,997.3
2018-11-23T05:51:52.233Z,997.3
2018-11-23T05:53:04.415Z,997.2
2018-11-23T05:54:16.611Z,997.3
2018-11-23T05:55:28.810Z,997.3
2018-11-23T05:56:40.936Z,997.4
2018-11-23T05:57:53.122Z,997.4
2018-11-23T05:59:05.323Z,997.4
2018-11-23T06:00:17.519Z,997.5
2018-11-23T06:01:29.818Z,997.5
2018-11-23T06:02:41.905Z,997.5
2018-11-23T06:03:54.215Z,997.4
2018-11-23T06:05:06.356Z,997.5
2018-11-23T06:07:30.675Z,997.5
2018-11-23T06:08:42.946Z,997.4
2018-11-23T06:09:55.069Z,997.4
2018-11-23T06:11:07.267Z,997.4
2018-11-23T06:12:19.538Z,997.5
2018-11-23T06:13:31.732Z,997.5
2018-11-23T06:14:43.878Z,997.4
2018-11-23T06:17:08.305Z,997.4
2018-11-23T06:18:20.498Z,997.4
2018-11-23T06:19:32.621Z,997.5
2018-11-23T06:20:44.825Z,997.5
2018-11-23T06:21:57.090Z,997.5
2018-11-23T06:23:09.281Z,997.5
2018-11-23T06:24:21.411Z,997.5
2018-11-23T06:25:33.705Z,997.5
2018-11-23T06:26:45.932Z,997.6
2018-11-23T06:27:58.053Z,997.6
2018-11-23T06:29:10.274Z,997.7
2018-11-23T06:30:22.443Z,997.7
2018-11-23T06:31:34.645Z,997.7
2018-11-23T06:32:46.836Z,997.7
2018-11-23T06:33:58.956Z,997.7
2018-11-23T06:36:23.347Z,997.7
2018-11-23T06:37:35.533Z,997.7
2018-11-23T06:38:47.725Z,997.7
2018-11-23T06:39:59.954Z,997.6
2018-11-23T06:41:12.163Z,997.6
2018-11-23T06:42:24.393Z,997.7
2018-11-23T06:43:36.595Z,997.7
2018-11-23T06:44:48.712Z,997.8
2018-11-23T06:46:00.983Z,997.8
2018-11-23T06:47:13.090Z,997.8
2018-11-23T06:48:25.366Z,997.8
2018-11-23T06:49:37.481Z,997.8
2018-11-23T06:50:49.753Z,997.8
2018-11-23T06:52:01.895Z,997.8
2018-11-23T06:53:14.081Z,997.9
2018-11-23T06:54:26.398Z,997.8
2018-11-23T06:55:38.522Z,997.9
2018-11-23T06:56:50.747Z,997.8
2018-11-23T06:58:02.915Z,997.8
2018-11-23T06:59:15.034Z,997.8
2018-11-23T07:00:27.351Z,997.9
2018-11-23T07:01:39.503Z,997.9
2018-11-23T07:02:51.614Z,997.8
2018-11-23T07:04:03.958Z,997.9
2018-11-23T07:05:16.081Z,997.8
2018-11-23T07:06:28.339Z,997.9
2018-11-23T07:07:40.409Z,997.9
2018-11-23T07:08:52.697Z,997.9
2018-11-23T07:10:06.876Z,997.8
2018-11-23T07:11:16.982Z,997.8
2018-11-23T07:12:29.173Z,997.7
2018-11-23T07:13:41.449Z,997.7
2018-11-23T07:14:53.628Z,997.8
2018-11-23T07:16:05.829Z,997.8
2018-11-23T07:17:18.056Z,997.7
2018-11-23T07:18:30.222Z,997.7
2018-11-23T07:19:42.444Z,997.6
2018-11-23T07:20:54.624Z,997.7
2018-11-23T07:22:06.813Z,997.6
2018-11-23T07:23:18.939Z,997.6
2018-11-23T07:24:31.112Z,997.7
2018-11-23T07:25:43.496Z,997.6
2018-11-23T07:26:55.594Z,997.6
2018-11-23T07:28:07.795Z,997.6
2018-11-23T07:29:19.966Z,997.6
2018-11-23T07:30:32.096Z,997.6
2018-11-23T07:31:44.360Z,997.5
2018-11-23T07:32:56.471Z,997.5
2018-11-23T07:34:08.775Z,997.5
2018-11-23T07:35:20.865Z,997.5
2018-11-23T07:36:33.151Z,997.5
2018-11-23T07:37:45.338Z,997.4
2018-11-23T07:38:57.447Z,997.4
2018-11-23T07:40:09.725Z,997.4
2018-11-23T07:41:21.887Z,997.4
2018-11-23T07:42:34.136Z,997.4
2018-11-23T07:43:46.304Z,997.4
2018-11-23T07:44:58.541Z,997.4
2018-11-23T07:46:10.624Z,997.4
2018-11-23T07:47:22.884Z,997.4
2018-11-23T07:50:59.509Z,997.3
2018-11-23T07:52:11.596Z,997.3
2018-11-23T07:53:24.559Z,997.4
2018-11-23T07:55:48.261Z,997.4
2018-11-23T07:58:12.560Z,997.3
2018-11-23T07:59:24.770Z,997.4
2018-11-23T08:00:37.686Z,997.4
2018-11-23T08:01:49.270Z,997.4
2018-11-23T08:03:01.410Z,997.4
2018-11-23T08:04:13.617Z,997.4
2018-11-23T08:05:26.201Z,997.3
2018-11-23T08:06:37.996Z,997.4
2018-11-23T08:07:50.119Z,997.4
2018-11-23T08:09:02.387Z,997.3
2018-11-23T08:10:14.647Z,997.4
2018-11-23T08:11:26.790Z,997.3
2018-11-23T08:12:38.983Z,997.3
2018-11-23T08:13:51.084Z,997.3
2018-11-23T08:15:03.366Z,997.3
2018-11-23T08:16:15.551Z,997.3
2018-11-23T08:17:27.751Z,997.3
2018-11-23T08:18:39.863Z,997.3
2018-11-23T08:19:52.083Z,997.3
2018-11-23T08:21:04.333Z,997.3
2018-11-23T08:22:16.444Z,997.3
2018-11-23T08:23:28.812Z,997.3
2018-11-23T08:24:40.846Z,997.3
2018-11-23T08:25:53.136Z,997.3
2018-11-23T08:27:05.290Z,997.4
2018-11-23T08:28:17.415Z,997.3
2018-11-23T08:29:29.624Z,997.3
2018-11-23T08:31:54.089Z,997.3
2018-11-23T08:33:06.200Z,997.3
2018-11-23T08:34:18.471Z,997.3
2018-11-23T08:35:30.660Z,997.3
2018-11-23T08:36:42.862Z,997.3
2018-11-23T08:37:55.050Z,997.3
2018-11-23T08:39:07.171Z,997.4
2018-11-23T08:40:19.459Z,997.4
2018-11-23T08:41:31.665Z,997.4
2018-11-23T08:42:43.834Z,997.4
2018-11-23T08:43:56.031Z,997.4
2018-11-23T08:45:08.250Z,997.4
2018-11-23T08:46:21.526Z,997.4
2018-11-23T08:48:44.796Z,997.4
2018-11-23T08:49:56.995Z,997.4
2018-11-23T08:51:09.192Z,997.4
2018-11-23T08:52:21.315Z,997.4
2018-11-23T08:53:33.665Z,997.4
2018-11-23T08:54:45.768Z,997.4
2018-11-23T08:55:57.894Z,997.3
2018-11-23T08:57:10.181Z,997.3
2018-11-23T08:58:22.381Z,997.2
2018-11-23T08:59:34.553Z,997.3
2018-11-23T09:00:46.702Z,997.2
2018-11-23T09:01:58.972Z,997.3
2018-11-23T09:03:11.130Z,997.2
2018-11-23T09:04:23.348Z,997.3
2018-11-23T09:05:35.527Z,997.3
2018-11-23T09:06:47.720Z,997.2
2018-11-23T09:07:59.839Z,997.2
2018-11-23T09:09:12.121Z,997.1
2018-11-23T09:10:24.314Z,997.1
2018-11-23T09:11:36.514Z,997.2
2018-11-23T09:12:48.699Z,997.3
2018-11-23T09:14:00.832Z,997.2
2018-11-23T09:15:13.085Z,997.2
2018-11-23T09:16:25.292Z,997.3
2018-11-23T09:17:37.499Z,997.3
2018-11-23T09:20:01.872Z,997.4
2018-11-23T09:21:14.075Z,997.3
2018-11-23T09:22:26.174Z,997.3
2018-11-23T09:23:38.453Z,997.3
2018-11-23T09:24:50.650Z,997.3
2018-11-23T09:26:02.842Z,997.2
2018-11-23T09:27:15.037Z,997.3
2018-11-23T09:28:27.291Z,997.2
2018-11-23T09:29:39.451Z,997.2
2018-11-23T09:30:51.630Z,997.2
2018-11-23T09:32:03.735Z,997.2
2018-11-23T09:33:15.939Z,997.3
2018-11-23T09:34:28.201Z,997.3
2018-11-23T09:35:40.415Z,997.3
2018-11-23T09:36:52.581Z,997.3
2018-11-23T09:38:04.717Z,997.3
2018-11-23T09:39:16.902Z,997.3
2018-11-23T09:40:29.098Z,997.3
2018-11-23T09:42:53.481Z,997.2
2018-11-23T09:44:05.756Z,997.3
2018-11-23T09:45:17.960Z,997.2
2018-11-23T09:46:30.078Z,997.2
2018-11-23T09:47:44.829Z,997.1
2018-11-23T09:48:54.459Z,997.1
2018-11-23T09:50:06.766Z,997
2018-11-23T09:51:18.929Z,997
2018-11-23T09:52:31.046Z,997.1
2018-11-23T09:53:43.363Z,997
2018-11-23T09:54:55.437Z,997
2018-11-23T09:56:07.628Z,997
2018-11-23T09:58:32.092Z,996.9
2018-11-23T10:00:56.408Z,996.9
2018-11-23T10:02:08.687Z,996.9
2018-11-23T10:03:20.879Z,996.9
2018-11-23T10:04:33.085Z,996.8
2018-11-23T10:05:45.291Z,996.8
2018-11-23T10:06:57.461Z,996.7
2018-11-23T10:08:09.579Z,996.7
2018-11-23T10:09:21.852Z,996.7
2018-11-23T10:10:34.043Z,996.7
2018-11-23T10:11:46.162Z,996.6
2018-11-23T10:12:58.462Z,996.6
2018-11-23T10:15:22.827Z,996.5
2018-11-23T10:16:35.030Z,996.5
2018-11-23T10:17:47.231Z,996.4
2018-11-23T10:18:59.407Z,996.4
2018-11-23T10:20:14.729Z,996.4
2018-11-23T10:22:36.047Z,996.2
2018-11-23T10:23:48.218Z,996.2
2018-11-23T10:25:00.324Z,996.2
2018-11-23T10:27:24.783Z,996.2
2018-11-23T10:28:36.979Z,996.2
2018-11-23T10:29:49.208Z,996.2
2018-11-23T10:31:01.303Z,996.1
2018-11-23T10:32:13.522Z,996.1
2018-11-23T10:33:25.773Z,996.1
2018-11-23T10:34:37.970Z,996.1
2018-11-23T10:35:50.085Z,996.1
2018-11-23T10:37:02.362Z,996.1
2018-11-23T10:38:14.467Z,996.1
2018-11-23T10:39:26.723Z,996.1
2018-11-23T10:40:38.936Z,996.1
2018-11-23T10:41:51.116Z,996.1
2018-11-23T10:43:03.336Z,996
2018-11-23T10:44:15.518Z,995.9
2018-11-23T10:45:27.724Z,995.9
2018-11-23T10:46:39.838Z,995.9
2018-11-23T10:47:52.050Z,995.9
2018-11-23T10:49:04.331Z,995.8
2018-11-23T10:50:16.512Z,995.8
2018-11-23T10:51:28.684Z,995.8
2018-11-23T10:52:40.813Z,995.8
2018-11-23T10:53:53.009Z,995.8
2018-11-23T10:55:05.284Z,995.7
2018-11-23T10:56:17.515Z,995.5
2018-11-23T10:57:29.592Z,995.5
2018-11-23T10:58:41.884Z,995.4
2018-11-23T10:59:54.061Z,995.4
2018-11-23T11:01:06.180Z,995.5
2018-11-23T11:02:18.445Z,995.5
2018-11-23T11:03:30.660Z,995.5
2018-11-23T11:04:42.848Z,995.5
2018-11-23T11:05:55.035Z,995.5
2018-11-23T11:07:07.239Z,995.5
2018-11-23T11:09:31.608Z,995.5
2018-11-23T11:10:43.805Z,995.5
2018-11-23T11:11:55.923Z,995.5
2018-11-23T11:13:08.208Z,995.5
2018-11-23T11:14:20.390Z,995.5
2018-11-23T11:15:32.514Z,995.6
2018-11-23T11:16:44.793Z,995.5
2018-11-23T11:17:56.945Z,995.6
2018-11-23T11:19:09.260Z,995.6
2018-11-23T11:20:21.316Z,995.5
2018-11-23T11:21:36.120Z,995.5
2018-11-23T11:22:45.690Z,995.5
2018-11-23T11:23:57.963Z,995.5
2018-11-23T11:25:10.088Z,995.5
2018-11-23T11:26:22.361Z,995.4
2018-11-23T11:27:34.477Z,995.4
2018-11-23T11:28:46.714Z,995.4
2018-11-23T11:29:58.851Z,995.4
2018-11-23T11:31:11.149Z,995.4
2018-11-23T11:32:23.243Z,995.3
2018-11-23T11:33:36.098Z,995.4
2018-11-23T11:34:47.713Z,995.3
2018-11-23T11:35:59.921Z,995.4
2018-11-23T11:38:24.299Z,995.4
2018-11-23T11:39:36.526Z,995.4
2018-11-23T11:40:48.724Z,995.4
2018-11-23T11:42:00.891Z,995.4
2018-11-23T11:43:13.011Z,995.4
2018-11-23T11:44:25.268Z,995.3
2018-11-23T11:46:49.688Z,995.3
2018-11-23T11:48:01.784Z,995.3
2018-11-23T11:49:13.983Z,995.2
2018-11-23T11:50:26.217Z,995.3
2018-11-23T11:51:38.460Z,995.3
2018-11-23T11:52:50.578Z,995.3
2018-11-23T11:54:02.843Z,995.4
2018-11-23T11:55:15.024Z,995.4
2018-11-23T11:56:27.290Z,995.3
2018-11-23T11:57:39.431Z,995.3
2018-11-23T11:58:51.605Z,995.2
2018-11-23T12:00:03.839Z,995.3
2018-11-23T12:01:15.926Z,995.3
2018-11-23T12:02:28.206Z,995.3
2018-11-23T12:03:40.402Z,995.2
2018-11-23T12:04:52.514Z,995.3
2018-11-23T12:06:04.832Z,995.2
2018-11-23T12:07:16.904Z,995.1
2018-11-23T12:08:29.185Z,995.2
2018-11-23T12:09:41.418Z,995
2018-11-23T12:10:53.590Z,995.1
2018-11-23T12:12:05.855Z,995.1
2018-11-23T12:13:17.984Z,995
2018-11-23T12:14:30.086Z,995
2018-11-23T12:15:42.409Z,995
2018-11-23T12:16:54.565Z,995
2018-11-23T12:18:06.661Z,994.9
2018-11-23T12:19:18.937Z,994.9
2018-11-23T12:20:31.138Z,994.9
2018-11-23T12:21:43.391Z,994.9
2018-11-23T12:22:55.525Z,994.9
2018-11-23T12:24:07.660Z,994.8
2018-11-23T12:25:19.824Z,994.8
2018-11-23T12:26:32.127Z,994.8
2018-11-23T12:27:44.289Z,994.8
2018-11-23T12:30:08.691Z,994.8
2018-11-23T12:31:20.809Z,994.8
2018-11-23T12:32:33.078Z,994.8
2018-11-23T12:33:45.209Z,994.9
2018-11-23T12:34:59.473Z,994.8
2018-11-23T12:36:09.588Z,994.9
2018-11-23T12:37:21.855Z,994.9
2018-11-23T12:38:34.064Z,994.9
2018-11-23T12:39:46.306Z,994.8
2018-11-23T12:40:58.394Z,994.8
2018-11-23T12:42:10.629Z,994.8
2018-11-23T12:43:22.838Z,994.8
2018-11-23T12:44:34.975Z,994.7
2018-11-23T12:45:47.155Z,994.8
2018-11-23T12:48:11.621Z,994.8
2018-11-23T12:49:23.762Z,994.7
2018-11-23T12:50:36.008Z,994.7
2018-11-23T12:51:48.202Z,994.7
2018-11-23T12:53:00.319Z,994.7
2018-11-23T12:54:12.596Z,994.6
2018-11-23T12:55:24.816Z,994.7
2018-11-23T12:56:36.994Z,994.7
2018-11-23T12:57:49.182Z,994.6
2018-11-23T12:59:01.287Z,994.6
2018-11-23T13:00:13.489Z,994.6
2018-11-23T13:01:25.677Z,994.6
2018-11-23T13:02:37.958Z,994.6
2018-11-23T13:03:50.068Z,994.5
2018-11-23T13:05:02.352Z,994.4
2018-11-23T13:06:14.461Z,994.4
2018-11-23T13:07:26.756Z,994.4
2018-11-23T13:08:38.971Z,994.4
2018-11-23T13:09:51.218Z,994.4
2018-11-23T13:11:03.325Z,994.3
2018-11-23T13:12:15.531Z,994.4
2018-11-23T13:13:27.728Z,994.4
2018-11-23T13:14:40.030Z,994.3
2018-11-23T13:15:52.095Z,994.3
2018-11-23T13:17:04.292Z,994.3
2018-11-23T13:18:16.418Z,994.3
2018-11-23T13:19:28.775Z,994.4
2018-11-23T13:20:40.802Z,994.3
2018-11-23T13:21:53.068Z,994.3
2018-11-23T13:23:05.314Z,994.3
2018-11-23T13:24:17.395Z,994.3
2018-11-23T13:25:29.654Z,994.3
2018-11-23T13:26:41.865Z,994.3
2018-11-23T13:27:54.045Z,994.2
2018-11-23T13:29:06.278Z,994.2
2018-11-23T13:30:18.433Z,994.3
2018-11-23T13:31:30.622Z,994.3
2018-11-23T13:32:42.821Z,994.3
2018-11-23T13:33:55.016Z,994.2
2018-11-23T13:35:07.184Z,994.2
2018-11-23T13:36:19.403Z,994.2
2018-11-23T13:37:31.577Z,994.3
2018-11-23T13:38:43.721Z,994.3
2018-11-23T13:39:56.074Z,994.2
2018-11-23T13:41:08.115Z,994.2
2018-11-23T13:42:20.304Z,994.2
2018-11-23T13:43:32.503Z,994.2
2018-11-23T13:44:44.690Z,994.2
2018-11-23T13:45:56.969Z,994.2
2018-11-23T13:47:09.093Z,994.1
2018-11-23T13:48:21.283Z,994.2
2018-11-23T13:49:33.613Z,994.1
2018-11-23T13:50:45.756Z,994.2
2018-11-23T13:51:57.934Z,994.1
2018-11-23T13:53:10.058Z,994.1
2018-11-23T13:54:22.254Z,994.1
2018-11-23T13:55:34.525Z,994.1
2018-11-23T13:56:46.665Z,994
2018-11-23T13:57:59.683Z,994
2018-11-23T13:59:11.113Z,994
2018-11-23T14:00:23.322Z,994
2018-11-23T14:01:35.540Z,994
2018-11-23T14:02:47.703Z,994
2018-11-23T14:03:59.889Z,994
2018-11-23T14:05:12.099Z,994
2018-11-23T14:06:24.210Z,994
2018-11-23T14:07:36.505Z,994
2018-11-23T14:08:48.631Z,994
2018-11-23T14:10:00.800Z,994
2018-11-23T14:11:13.056Z,994
2018-11-23T14:12:25.262Z,994
2018-11-23T14:13:37.461Z,994
2018-11-23T14:14:49.664Z,994.1
2018-11-23T14:16:01.895Z,994
2018-11-23T14:17:13.955Z,994
2018-11-23T14:18:26.242Z,993.9
2018-11-23T14:19:38.415Z,993.9
2018-11-23T14:20:51.140Z,994
2018-11-23T14:22:02.808Z,994
2018-11-23T14:23:15.006Z,994
2018-11-23T14:24:27.280Z,994
2018-11-23T14:25:39.391Z,994
2018-11-23T14:26:51.508Z,994.1
2018-11-23T14:28:03.705Z,994
2018-11-23T14:29:15.896Z,994
2018-11-23T14:30:28.197Z,994
2018-11-23T14:31:40.368Z,994
2018-11-23T14:32:52.551Z,994.1
2018-11-23T14:34:04.679Z,994.1
2018-11-23T14:35:16.963Z,994.2
2018-11-23T14:36:29.072Z,994.2
2018-11-23T14:37:41.346Z,994.1
2018-11-23T14:40:05.652Z,994.1
2018-11-23T14:41:17.923Z,994.1
2018-11-23T14:42:30.143Z,994
2018-11-23T14:43:42.293Z,994
2018-11-23T14:44:54.435Z,994.1
2018-11-23T14:46:06.698Z,994.1
2018-11-23T14:47:18.896Z,994.1
2018-11-23T14:48:31.116Z,994.2
2018-11-23T14:49:43.494Z,994.1
2018-11-23T14:50:55.495Z,994.1
2018-11-23T14:52:07.597Z,994.1
2018-11-23T14:53:19.881Z,994.1
2018-11-23T14:54:32.101Z,994.1
2018-11-23T14:55:44.264Z,994
2018-11-23T14:56:56.447Z,994.1
2018-11-23T14:58:08.582Z,994
2018-11-23T14:59:20.916Z,994
2018-11-23T15:00:33.051Z,994
2018-11-23T15:01:45.244Z,994
2018-11-23T15:02:57.349Z,994
2018-11-23T15:04:09.763Z,994
2018-11-23T15:05:21.810Z,993.9
2018-11-23T15:06:33.930Z,993.9
2018-11-23T15:07:46.134Z,993.9
2018-11-23T15:08:58.498Z,993.9
2018-11-23T15:10:10.602Z,993.9
2018-11-23T15:11:22.718Z,993.9
2018-11-23T15:12:34.989Z,993.8
2018-11-23T15:13:47.188Z,993.8
2018-11-23T15:14:59.336Z,993.8
2018-11-23T15:16:11.497Z,993.8
2018-11-23T15:17:23.885Z,993.8
2018-11-23T15:18:35.972Z,993.8
2018-11-23T15:19:48.158Z,993.7
2018-11-23T15:21:00.318Z,993.7
2018-11-23T15:22:12.552Z,993.7
2018-11-23T15:23:24.746Z,993.7
2018-11-23T15:24:36.943Z,993.8
2018-11-23T15:25:49.157Z,993.7
2018-11-23T15:27:01.330Z,993.7
2018-11-23T15:28:13.522Z,993.7
2018-11-23T15:29:25.728Z,993.7
2018-11-23T15:30:37.840Z,993.7
2018-11-23T15:31:50.111Z,993.7
2018-11-23T15:33:02.299Z,993.7
2018-11-23T15:34:14.492Z,993.6
2018-11-23T15:35:26.706Z,993.7
2018-11-23T15:36:38.915Z,993.6
2018-11-23T15:37:51.083Z,993.6
2018-11-23T15:39:03.286Z,993.6
2018-11-23T15:40:15.502Z,993.5
2018-11-23T15:42:39.885Z,993.5
2018-11-23T15:43:52.115Z,993.5
2018-11-23T15:45:04.264Z,993.4
2018-11-23T15:46:16.529Z,993.5
2018-11-23T15:47:28.652Z,993.5
2018-11-23T15:48:40.875Z,993.5
2018-11-23T15:49:53.046Z,993.5
2018-11-23T15:51:07.063Z,993.5
2018-11-23T15:52:17.428Z,993.5
2018-11-23T15:53:29.637Z,993.5
2018-11-23T15:54:41.761Z,993.5
2018-11-23T15:55:54.008Z,993.5
2018-11-23T15:57:06.222Z,993.5
2018-11-23T15:58:18.439Z,993.6
2018-11-23T15:59:30.544Z,993.5
2018-11-23T16:00:42.741Z,993.5
2018-11-23T16:01:55.025Z,993.4
2018-11-23T16:03:07.210Z,993.4
2018-11-23T16:04:19.455Z,993.4
2018-11-23T16:05:31.613Z,993.4
2018-11-23T16:06:43.801Z,993.4
2018-11-23T16:07:56.013Z,993.4
2018-11-23T16:09:08.191Z,993.4
2018-11-23T16:10:20.321Z,993.4
2018-11-23T16:11:32.515Z,993.3
2018-11-23T16:12:44.780Z,993.3
2018-11-23T16:13:56.988Z,993.3
2018-11-23T16:15:09.105Z,993.3
2018-11-23T16:16:21.387Z,993.2
2018-11-23T16:17:33.585Z,993.3
2018-11-23T16:18:45.761Z,993.2
2018-11-23T16:19:57.886Z,993.2
2018-11-23T16:21:10.171Z,993.2
2018-11-23T16:22:22.282Z,993.2
2018-11-23T16:23:34.557Z,993.2
2018-11-23T16:24:46.681Z,993.1
2018-11-23T16:25:58.962Z,993.1
2018-11-23T16:27:11.081Z,993.1
2018-11-23T16:28:23.349Z,993.1
2018-11-23T16:29:35.537Z,993.1
2018-11-23T16:30:47.762Z,993.1
2018-11-23T16:31:59.928Z,993.1
2018-11-23T16:33:12.190Z,993
2018-11-23T16:34:24.242Z,993